Terminal Aerodrome Forecast
Issued by NWS

Home | Current Version | Previous Version | Text Only | Print | Product List | Glossary On
Versions: 1 2 3 4 5 6 7 8 9 10 11 12 13
000
FTUS45 KREV 181740
TAFTVL
TAF
KTVL 181740Z 1818/1918 20025G40KT P6SM SCT060 WS020/28050KT
     FM182200 20015G28KT 2SM -SHSN BKN015 OVC030
     FM190400 20011G16KT P6SM VCSH BKN025 OVC035
     FM191000 19005KT P6SM VCSH BKN030 BKN050=

USA.gov is the U.S. government's official web portal to all federal, state and local government web resources and services.